Time;durP1;ratioP1;P1;durP2;ratioP2;P2;SDS_P1;SDS_P2;PMS_P1;PMS_P2;Temp;Humidity;BMP_temperature;BMP_pressure;BME280_temperature;BME280_humidity;BME280_pressure;Samples;Min_cycle;Max_cycle;Signal;HPM_P1;HPM_P2
2023/06/23 00:01:41;;;;;;;2.20;0.80;;;;;;;;;;5094460;28;20463;-76
2023/06/23 00:04:07;;;;;;;3.93;0.97;;;;;;;;;;5094097;28;20082;-76
2023/06/23 00:06:32;;;;;;;4.28;1.05;;;;;;;;;;5092740;28;20253;-76
2023/06/23 00:08:59;;;;;;;3.93;0.90;;;;;;;;;;5094097;28;20039;-76
2023/06/23 00:11:24;;;;;;;3.05;1.02;;;;;;;;;;5094449;28;20631;-76
2023/06/23 00:13:50;;;;;;;2.10;0.70;;;;;;;;;;5094010;28;20032;-76
2023/06/23 00:16:16;;;;;;;3.55;0.82;;;;;;;;;;5093957;28;20124;-76
2023/06/23 00:18:41;;;;;;;34.88;1.67;;;;;;;;;;5094108;28;20075;-76
2023/06/23 00:21:07;;;;;;;9.17;0.90;;;;;;;;;;5094168;28;20024;-76
2023/06/23 00:23:34;;;;;;;13.75;1.27;;;;;;;;;;5092744;28;20252;-76
2023/06/23 00:26:00;;;;;;;17.70;1.35;;;;;;;;;;5092409;28;20020;-76
2023/06/23 00:28:25;;;;;;;4.15;0.80;;;;;;;;;;5092360;28;20084;-76
2023/06/23 00:30:54;;;;;;;2.88;0.77;;;;;;;;;;5094003;28;20107;-76
2023/06/23 00:33:19;;;;;;;3.05;0.88;;;;;;;;;;5094272;28;20443;-76
2023/06/23 00:35:45;;;;;;;6.15;1.10;;;;;;;;;;5094226;28;20055;-77
2023/06/23 00:38:10;;;;;;;2.58;0.93;;;;;;;;;;5093371;28;20020;-76
2023/06/23 00:40:36;;;;;;;3.00;1.00;;;;;;;;;;5092336;28;20115;-76
2023/06/23 00:43:02;;;;;;;3.65;1.00;;;;;;;;;;5094382;28;20642;-76
2023/06/23 00:45:27;;;;;;;1.48;0.98;;;;;;;;;;5093516;28;20028;-76
2023/06/23 00:47:53;;;;;;;1.10;0.90;;;;;;;;;;5093337;28;20506;-76
2023/06/23 00:50:20;;;;;;;3.58;1.40;;;;;;;;;;5093499;28;20027;-76
2023/06/23 00:52:50;;;;;;;4.22;1.10;;;;;;;;;;5093526;28;20058;-76
2023/06/23 00:55:26;;;;;;;5.30;0.93;;;;;;;;;;5092185;28;20020;-76
2023/06/23 00:57:54;;;;;;;5.50;0.95;;;;;;;;;;5093691;28;20024;-76
2023/06/23 01:00:20;;;;;;;3.10;1.23;;;;;;;;;;5093701;28;20027;-76
2023/06/23 01:02:49;;;;;;;2.28;1.08;;;;;;;;;;5093356;28;20483;-77
2023/06/23 01:05:37;;;;;;;4.00;0.80;;;;;;;;;;5093402;28;20024;-77
2023/06/23 01:08:26;;;;;;;2.55;1.08;;;;;;;;;;5092645;28;20032;-77
2023/06/23 01:10:53;;;;;;;1.42;0.80;;;;;;;;;;5090659;28;20489;-77
2023/06/23 01:13:47;;;;;;;2.00;1.20;;;;;;;;;;5093337;28;20035;-77
2023/06/23 01:16:26;;;;;;;2.35;0.90;;;;;;;;;;5092281;28;20811;-77
2023/06/23 01:19:29;;;;;;;3.45;0.90;;;;;;;;;;5093117;28;20103;-77
2023/06/23 01:22:06;;;;;;;4.38;1.45;;;;;;;;;;5092808;28;20032;-77
2023/06/23 01:24:50;;;;;;;0.98;0.80;;;;;;;;;;5093554;28;20028;-77
2023/06/23 01:27:41;;;;;;;1.10;0.82;;;;;;;;;;5093526;28;20038;-77
2023/06/23 01:30:11;;;;;;;1.80;0.85;;;;;;;;;;5091952;28;20097;-77
2023/06/23 01:32:43;;;;;;;4.25;1.00;;;;;;;;;;5093247;28;20527;-76
2023/06/23 01:35:14;;;;;;;3.80;0.90;;;;;;;;;;5091848;28;20028;-77
2023/06/23 01:37:44;;;;;;;3.00;1.08;;;;;;;;;;5091957;28;20486;-77
2023/06/23 01:40:14;;;;;;;2.28;0.93;;;;;;;;;;5093322;28;20485;-77
2023/06/23 01:42:45;;;;;;;1.77;1.00;;;;;;;;;;5093178;28;20027;-77
2023/06/23 01:45:14;;;;;;;2.70;1.10;;;;;;;;;;5093340;28;20024;-77
2023/06/23 01:47:41;;;;;;;1.83;0.85;;;;;;;;;;5092946;28;20063;-77
2023/06/23 01:50:09;;;;;;;2.63;1.10;;;;;;;;;;5093337;28;20077;-77
2023/06/23 01:52:37;;;;;;;4.85;1.35;;;;;;;;;;5097383;28;20055;-77
2023/06/23 01:55:05;;;;;;;3.38;1.10;;;;;;;;;;5096901;28;20024;-77
2023/06/23 01:57:33;;;;;;;2.47;1.55;;;;;;;;;;5095538;28;20016;-76
2023/06/23 02:00:00;;;;;;;1.98;0.95;;;;;;;;;;5095418;28;20024;-76
2023/06/23 02:02:27;;;;;;;4.55;1.10;;;;;;;;;;5096965;28;20032;-76
2023/06/23 02:04:55;;;;;;;7.35;1.30;;;;;;;;;;5095393;28;20028;-76
2023/06/23 02:07:22;;;;;;;4.40;1.30;;;;;;;;;;5096325;28;20105;-76
2023/06/23 02:09:48;;;;;;;3.47;1.10;;;;;;;;;;5097188;28;20368;-76
2023/06/23 02:12:15;;;;;;;1.73;1.00;;;;;;;;;;5096388;28;20024;-76
2023/06/23 02:14:42;;;;;;;4.07;1.23;;;;;;;;;;5096719;28;20604;-76
2023/06/23 02:17:10;;;;;;;1.63;0.98;;;;;;;;;;5096443;28;20032;-76
2023/06/23 02:19:39;;;;;;;1.30;1.08;;;;;;;;;;5096658;28;20024;-76
2023/06/23 02:22:08;;;;;;;1.45;1.00;;;;;;;;;;5096335;28;20020;-76
2023/06/23 02:24:35;;;;;;;1.90;1.20;;;;;;;;;;5095090;28;20024;-75
2023/06/23 02:27:01;;;;;;;2.30;1.23;;;;;;;;;;5096067;28;20450;-76
2023/06/23 02:29:27;;;;;;;2.53;1.30;;;;;;;;;;5096142;28;20112;-76
2023/06/23 02:31:52;;;;;;;1.85;1.23;;;;;;;;;;5096175;28;20028;-76
2023/06/23 02:34:17;;;;;;;2.78;1.38;;;;;;;;;;5096393;28;20387;-76
2023/06/23 02:36:49;;;;;;;3.73;1.77;;;;;;;;;;5096656;28;20021;-76
2023/06/23 02:39:18;;;;;;;2.80;1.90;;;;;;;;;;5096651;28;20324;-76
2023/06/23 02:41:47;;;;;;;2.78;2.10;;;;;;;;;;5096096;28;20027;-76
2023/06/23 02:44:15;;;;;;;6.03;2.47;;;;;;;;;;5094680;28;20024;-78
2023/06/23 02:46:43;;;;;;;4.00;2.10;;;;;;;;;;5095944;28;20020;-76
2023/06/23 02:49:16;;;;;;;3.92;1.90;;;;;;;;;;5094604;28;20020;-76
2023/06/23 02:51:44;;;;;;;2.30;2.00;;;;;;;;;;5096367;28;20047;-76
2023/06/23 02:54:12;;;;;;;4.05;2.13;;;;;;;;;;5095917;28;20016;-76
2023/06/23 02:56:41;;;;;;;2.15;1.95;;;;;;;;;;5094255;28;20047;-76
2023/06/23 02:59:11;;;;;;;2.72;1.88;;;;;;;;;;5094302;28;20113;-75
2023/06/23 03:01:40;;;;;;;3.50;2.13;;;;;;;;;;5095230;28;20028;-76
2023/06/23 03:04:05;;;;;;;4.40;2.13;;;;;;;;;;5095445;28;20398;-76
2023/06/23 03:06:34;;;;;;;4.67;2.33;;;;;;;;;;5093990;28;20016;-77
2023/06/23 03:09:00;;;;;;;3.17;1.88;;;;;;;;;;5095197;28;20291;-76
2023/06/23 03:11:25;;;;;;;5.00;1.92;;;;;;;;;;5095746;28;20111;-77
2023/06/23 03:13:50;;;;;;;2.77;2.00;;;;;;;;;;5095320;28;20442;-76
2023/06/23 03:16:22;;;;;;;4.93;2.00;;;;;;;;;;5095348;28;20665;-76
2023/06/23 03:18:57;;;;;;;2.15;1.95;;;;;;;;;;5095491;28;20256;-77
2023/06/23 03:21:24;;;;;;;5.15;1.77;;;;;;;;;;5093908;28;20114;-76
2023/06/23 03:23:51;;;;;;;2.60;1.70;;;;;;;;;;5095147;28;20027;-76
2023/06/23 03:26:19;;;;;;;2.90;1.70;;;;;;;;;;5094953;28;20020;-76
2023/06/23 03:28:48;;;;;;;6.20;1.85;;;;;;;;;;5095244;28;20028;-77
2023/06/23 03:31:15;;;;;;;2.22;1.50;;;;;;;;;;5095370;28;20470;-77
2023/06/23 03:33:43;;;;;;;4.50;1.70;;;;;;;;;;5093737;28;20024;-76
2023/06/23 03:36:12;;;;;;;2.95;1.60;;;;;;;;;;5094801;28;20032;-76
2023/06/23 03:38:44;;;;;;;3.45;1.70;;;;;;;;;;5094972;28;20012;-76
2023/06/23 03:41:11;;;;;;;2.47;1.70;;;;;;;;;;5095552;28;20417;-77
2023/06/23 03:43:42;;;;;;;3.22;1.90;;;;;;;;;;5094742;28;20035;-76
2023/06/23 03:46:19;;;;;;;2.95;2.05;;;;;;;;;;5094687;28;20099;-76
2023/06/23 03:48:45;;;;;;;4.00;2.05;;;;;;;;;;5094837;28;20028;-76
2023/06/23 03:51:13;;;;;;;3.13;1.83;;;;;;;;;;5094527;28;20031;-76
2023/06/23 03:53:40;;;;;;;5.80;2.08;;;;;;;;;;5094955;28;20020;-76
2023/06/23 03:56:06;;;;;;;4.30;1.88;;;;;;;;;;5094331;28;20024;-76
2023/06/23 03:58:34;;;;;;;3.65;2.10;;;;;;;;;;5094673;28;20028;-76
2023/06/23 04:01:02;;;;;;;2.85;1.92;;;;;;;;;;5094358;28;20103;-75
2023/06/23 04:03:30;;;;;;;2.97;2.00;;;;;;;;;;5094660;28;20020;-76
2023/06/23 04:05:57;;;;;;;5.05;2.20;;;;;;;;;;5092881;28;20028;-76
2023/06/23 04:08:23;;;;;;;8.38;2.10;;;;;;;;;;5093945;28;20059;-76
2023/06/23 04:10:49;;;;;;;3.25;2.10;;;;;;;;;;5094244;28;20471;-77
2023/06/23 04:13:16;;;;;;;2.30;1.60;;;;;;;;;;5093425;28;20059;-76
2023/06/23 04:15:45;;;;;;;5.55;1.73;;;;;;;;;;5092774;28;20028;-76
2023/06/23 04:18:11;;;;;;;2.38;1.77;;;;;;;;;;5092835;28;20078;-76
2023/06/23 04:20:39;;;;;;;5.55;1.70;;;;;;;;;;5094033;28;20479;-77
2023/06/23 04:23:05;;;;;;;3.70;1.73;;;;;;;;;;5093445;28;20028;-77
2023/06/23 04:25:31;;;;;;;4.75;1.80;;;;;;;;;;5093925;28;20030;-77
2023/06/23 04:28:00;;;;;;;10.43;1.95;;;;;;;;;;5093713;28;20020;-77
2023/06/23 04:30:29;;;;;;;3.45;1.42;;;;;;;;;;5093838;28;20063;-77
2023/06/23 04:32:54;;;;;;;3.17;1.60;;;;;;;;;;5092642;28;20494;-77
2023/06/23 04:35:20;;;;;;;3.53;1.50;;;;;;;;;;5093631;28;20031;-77
2023/06/23 04:37:57;;;;;;;2.40;1.52;;;;;;;;;;5093632;28;20024;-77
2023/06/23 04:40:45;;;;;;;5.80;1.60;;;;;;;;;;5093960;28;20028;-77
2023/06/23 04:43:19;;;;;;;3.75;1.50;;;;;;;;;;5093716;28;20063;-77
2023/06/23 04:45:53;;;;;;;4.00;1.60;;;;;;;;;;5092841;28;20031;-77
2023/06/23 04:48:23;;;;;;;3.58;1.80;;;;;;;;;;5092956;28;20027;-77
2023/06/23 04:50:51;;;;;;;2.55;1.60;;;;;;;;;;5092550;28;20016;-76
2023/06/23 04:53:21;;;;;;;6.18;1.80;;;;;;;;;;5093830;28;20027;-77
2023/06/23 04:55:51;;;;;;;3.03;1.67;;;;;;;;;;5093477;28;20035;-77
2023/06/23 04:58:18;;;;;;;1.90;1.50;;;;;;;;;;5093496;28;20016;-77
2023/06/23 05:00:45;;;;;;;5.00;1.50;;;;;;;;;;5093596;28;20032;-77
2023/06/23 05:03:11;;;;;;;2.53;1.60;;;;;;;;;;5092264;28;20028;-77
2023/06/23 05:05:38;;;;;;;3.85;1.90;;;;;;;;;;5093580;28;20108;-77
2023/06/23 05:08:04;;;;;;;3.50;1.70;;;;;;;;;;5092972;28;20028;-77
2023/06/23 05:10:30;;;;;;;2.50;1.60;;;;;;;;;;5092337;28;20444;-77
2023/06/23 05:12:59;;;;;;;3.97;1.75;;;;;;;;;;5093580;28;20114;-76
2023/06/23 05:15:25;;;;;;;3.28;1.80;;;;;;;;;;5093338;28;20016;-77
2023/06/23 05:17:55;;;;;;;5.07;1.70;;;;;;;;;;5091943;28;20554;-77
2023/06/23 05:20:23;;;;;;;2.42;1.85;;;;;;;;;;5093463;28;20028;-76
2023/06/23 05:22:50;;;;;;;2.33;1.67;;;;;;;;;;5093727;28;20024;-77
2023/06/23 05:25:17;;;;;;;3.28;1.77;;;;;;;;;;5096987;28;20183;-77
2023/06/23 05:27:45;;;;;;;3.78;1.85;;;;;;;;;;5097229;28;20024;-77
2023/06/23 05:30:16;;;;;;;5.75;2.35;;;;;;;;;;5096122;28;20027;-77
2023/06/23 05:32:42;;;;;;;5.07;2.28;;;;;;;;;;5097327;28;20028;-77
2023/06/23 05:35:10;;;;;;;3.25;2.15;;;;;;;;;;5097109;28;20059;-77
2023/06/23 05:37:38;;;;;;;4.13;2.17;;;;;;;;;;5097229;28;20024;-77
2023/06/23 05:40:06;;;;;;;6.05;2.40;;;;;;;;;;5095859;28;20016;-77
2023/06/23 05:42:32;;;;;;;5.18;2.33;;;;;;;;;;5097069;28;20115;-77
2023/06/23 05:44:59;;;;;;;4.50;2.40;;;;;;;;;;5095920;28;20066;-76
2023/06/23 05:47:28;;;;;;;5.20;2.40;;;;;;;;;;5095658;28;20119;-77
2023/06/23 05:49:58;;;;;;;4.25;2.78;;;;;;;;;;5097030;28;20024;-77
2023/06/23 05:52:23;;;;;;;3.10;2.35;;;;;;;;;;5097070;28;20016;-76
2023/06/23 05:54:53;;;;;;;4.70;3.00;;;;;;;;;;5096885;28;20031;-76
2023/06/23 05:57:28;;;;;;;5.00;2.83;;;;;;;;;;5096518;28;20402;-76
2023/06/23 06:00:13;;;;;;;5.70;2.85;;;;;;;;;;5096909;28;20073;-76
2023/06/23 06:02:41;;;;;;;6.03;3.47;;;;;;;;;;5097290;28;20121;-77
2023/06/23 06:05:10;;;;;;;6.05;2.95;;;;;;;;;;5096850;28;20099;-77
2023/06/23 06:07:37;;;;;;;5.25;3.10;;;;;;;;;;5096266;28;20085;-77
2023/06/23 06:10:04;;;;;;;3.97;2.80;;;;;;;;;;5096720;28;20032;-76
2023/06/23 06:12:33;;;;;;;5.35;3.30;;;;;;;;;;5095153;28;20107;-77
2023/06/23 06:15:00;;;;;;;5.75;3.00;;;;;;;;;;5096450;28;20066;-77
2023/06/23 06:17:27;;;;;;;6.40;3.20;;;;;;;;;;5095279;28;20545;-76
2023/06/23 06:19:56;;;;;;;7.25;3.50;;;;;;;;;;5096355;28;20081;-76
2023/06/23 06:22:22;;;;;;;6.25;2.90;;;;;;;;;;5096139;28;20020;-76
2023/06/23 06:24:49;;;;;;;6.22;3.13;;;;;;;;;;5096311;28;20035;-76
2023/06/23 06:27:14;;;;;;;8.82;2.88;;;;;;;;;;5096177;28;20024;-76
2023/06/23 06:29:41;;;;;;;5.60;3.00;;;;;;;;;;5096141;28;20383;-76
2023/06/23 06:32:08;;;;;;;7.40;3.17;;;;;;;;;;5095918;28;20028;-76
2023/06/23 06:34:33;;;;;;;4.95;2.95;;;;;;;;;;5095969;28;20164;-76
2023/06/23 06:37:02;;;;;;;6.75;3.40;;;;;;;;;;5095111;28;20063;-75
2023/06/23 06:39:29;;;;;;;8.05;3.20;;;;;;;;;;5094674;28;20506;-76
2023/06/23 06:41:57;;;;;;;4.90;3.33;;;;;;;;;;5096094;28;20027;-75
2023/06/23 06:44:22;;;;;;;6.90;2.97;;;;;;;;;;5096326;28;20107;-76
2023/06/23 06:46:48;;;;;;;5.10;3.13;;;;;;;;;;5094167;28;20047;-76
2023/06/23 06:49:17;;;;;;;5.10;3.08;;;;;;;;;;5095819;28;20455;-76
2023/06/23 06:51:44;;;;;;;5.75;2.90;;;;;;;;;;5095630;28;20039;-76
2023/06/23 06:54:09;;;;;;;7.38;3.08;;;;;;;;;;5095585;28;20020;-76
2023/06/23 06:56:35;;;;;;;10.82;3.63;;;;;;;;;;5095614;28;20147;-77
2023/06/23 06:59:01;;;;;;;5.35;3.40;;;;;;;;;;5094342;28;20020;-76
2023/06/23 07:01:27;;;;;;;7.63;3.60;;;;;;;;;;5095640;28;20453;-76
2023/06/23 07:03:53;;;;;;;5.35;3.28;;;;;;;;;;5095840;28;20024;-76
2023/06/23 07:06:19;;;;;;;5.45;3.20;;;;;;;;;;5095242;28;20031;-76
2023/06/23 07:08:44;;;;;;;7.18;2.92;;;;;;;;;;5095319;28;20534;-76
2023/06/23 07:11:10;;;;;;;8.73;2.70;;;;;;;;;;5094029;28;20024;-76
2023/06/23 07:13:35;;;;;;;8.95;3.10;;;;;;;;;;5095309;28;20317;-76
2023/06/23 07:16:00;;;;;;;4.60;2.93;;;;;;;;;;5095604;28;20085;-76
2023/06/23 07:18:26;;;;;;;5.83;3.30;;;;;;;;;;5095784;28;20028;-76
2023/06/23 07:20:51;;;;;;;6.53;3.20;;;;;;;;;;5093960;28;20081;-76
2023/06/23 07:23:16;;;;;;;8.82;3.22;;;;;;;;;;5093947;28;20036;-75
2023/06/23 07:25:41;;;;;;;5.70;3.20;;;;;;;;;;5095608;28;20386;-76
2023/06/23 07:28:07;;;;;;;11.07;3.63;;;;;;;;;;5095308;28;20538;-76
2023/06/23 07:30:32;;;;;;;8.27;3.60;;;;;;;;;;5095192;28;20541;-77
2023/06/23 07:32:57;;;;;;;10.10;3.43;;;;;;;;;;5095277;28;20317;-76
2023/06/23 07:35:23;;;;;;;8.20;3.35;;;;;;;;;;5095458;28;20020;-76
2023/06/23 07:37:48;;;;;;;5.43;3.63;;;;;;;;;;5093591;28;20055;-76
2023/06/23 07:40:13;;;;;;;6.70;3.40;;;;;;;;;;5094789;28;20027;-76
2023/06/23 07:42:38;;;;;;;7.60;3.60;;;;;;;;;;5095367;28;20043;-76
2023/06/23 07:45:04;;;;;;;6.53;3.17;;;;;;;;;;5094749;28;20032;-76
2023/06/23 07:47:29;;;;;;;6.82;2.90;;;;;;;;;;5092475;28;20280;-76
2023/06/23 07:49:54;;;;;;;8.10;3.05;;;;;;;;;;5094809;28;20024;-76
2023/06/23 07:52:20;;;;;;;4.07;2.10;;;;;;;;;;5093637;28;20047;-76
2023/06/23 07:54:45;;;;;;;5.07;2.40;;;;;;;;;;5094759;28;20039;-76
2023/06/23 07:57:12;;;;;;;4.33;2.20;;;;;;;;;;5094628;28;20028;-76
2023/06/23 07:59:37;;;;;;;2.92;1.48;;;;;;;;;;5093033;28;20755;-75
2023/06/23 08:02:02;;;;;;;2.85;1.42;;;;;;;;;;5094825;28;20039;-76
2023/06/23 08:04:28;;;;;;;8.07;1.40;;;;;;;;;;5092928;28;20071;-76
2023/06/23 08:06:53;;;;;;;4.07;1.40;;;;;;;;;;5094250;28;20561;-76
2023/06/23 08:09:18;;;;;;;1.97;1.30;;;;;;;;;;5092875;28;20632;-76
2023/06/23 08:11:43;;;;;;;1.63;1.20;;;;;;;;;;5092654;28;20267;-76
2023/06/23 08:14:10;;;;;;;1.83;1.10;;;;;;;;;;5092924;28;20055;-76
2023/06/23 08:16:35;;;;;;;2.63;1.15;;;;;;;;;;5092757;28;20028;-76
2023/06/23 08:19:00;;;;;;;1.57;1.00;;;;;;;;;;5093895;28;20095;-77
2023/06/23 08:21:26;;;;;;;4.07;1.20;;;;;;;;;;5093902;28;20264;-76
2023/06/23 08:23:51;;;;;;;1.30;1.00;;;;;;;;;;5094253;28;20027;-76
2023/06/23 08:26:17;;;;;;;2.17;1.10;;;;;;;;;;5092690;28;20024;-76
2023/06/23 08:28:43;;;;;;;1.30;0.95;;;;;;;;;;5093742;28;20276;-76
2023/06/23 08:31:08;;;;;;;5.05;1.02;;;;;;;;;;5092692;28;20596;-76
2023/06/23 08:33:34;;;;;;;1.50;1.00;;;;;;;;;;5093785;28;20039;-76
2023/06/23 08:36:00;;;;;;;0.95;0.90;;;;;;;;;;5092343;28;20027;-76
2023/06/23 08:38:25;;;;;;;1.88;1.10;;;;;;;;;;5094081;28;20446;-76
2023/06/23 08:40:52;;;;;;;2.35;1.10;;;;;;;;;;5093686;28;20051;-76
2023/06/23 08:43:23;;;;;;;3.63;1.10;;;;;;;;;;5092422;28;20027;-76
2023/06/23 08:45:59;;;;;;;1.63;1.17;;;;;;;;;;5093545;28;20436;-77
2023/06/23 08:48:27;;;;;;;1.30;1.05;;;;;;;;;;5093724;28;20024;-77
2023/06/23 08:50:54;;;;;;;1.92;1.30;;;;;;;;;;5093434;28;20390;-77
2023/06/23 08:53:22;;;;;;;2.20;1.27;;;;;;;;;;5093738;28;20028;-76
2023/06/23 08:55:48;;;;;;;3.03;1.45;;;;;;;;;;5093428;28;20028;-77
2023/06/23 08:58:13;;;;;;;3.47;1.33;;;;;;;;;;5093147;28;20356;-77
2023/06/23 09:00:38;;;;;;;4.93;1.90;;;;;;;;;;5091933;28;20035;-77
2023/06/23 09:03:04;;;;;;;1.60;1.42;;;;;;;;;;5093341;28;20245;-76
2023/06/23 09:05:29;;;;;;;2.20;1.50;;;;;;;;;;5093259;28;20030;-77
2023/06/23 09:07:55;;;;;;;3.30;1.60;;;;;;;;;;5093044;28;20044;-76
2023/06/23 09:10:21;;;;;;;8.10;1.67;;;;;;;;;;5093305;28;20288;-77
2023/06/23 09:13:14;;;;;;;1.73;1.50;;;;;;;;;;5093150;28;20026;-76
2023/06/23 09:15:41;;;;;;;2.25;1.60;;;;;;;;;;5093478;28;20046;-76
2023/06/23 09:18:08;;;;;;;3.83;1.98;;;;;;;;;;5093047;28;20155;-76
2023/06/23 09:20:34;;;;;;;5.97;1.98;;;;;;;;;;5092994;28;20032;-76
2023/06/23 09:23:00;;;;;;;2.42;1.70;;;;;;;;;;5093448;28;20375;-76
2023/06/23 09:25:44;;;;;;;4.05;1.80;;;;;;;;;;5093017;28;20023;-76
2023/06/23 09:28:34;;;;;;;2.05;1.60;;;;;;;;;;5092866;28;20103;-76
2023/06/23 09:31:08;;;;;;;7.13;1.70;;;;;;;;;;5091988;28;20383;-76
2023/06/23 09:33:33;;;;;;;;;;;;;;;;;;5093696;28;20019;-76
2023/06/23 09:36:04;;;;;;;3.30;1.80;;;;;;;;;;5092692;28;20304;-77
2023/06/23 09:38:35;;;;;;;1.88;1.65;;;;;;;;;;5091664;28;20050;-77
2023/06/23 09:41:08;;;;;;;2.50;1.85;;;;;;;;;;5093166;28;20016;-77
2023/06/23 09:43:42;;;;;;;1.42;1.30;;;;;;;;;;5092927;28;20398;-76
2023/06/23 09:46:08;;;;;;;;;;;;;;;;;;5093283;28;20052;-77
2023/06/23 09:48:33;;;;;;;3.35;1.50;;;;;;;;;;5091169;28;19912;-76
2023/06/23 09:51:00;;;;;;;2.17;1.40;;;;;;;;;;5093273;28;20074;-77
2023/06/23 09:53:25;;;;;;;1.30;1.20;;;;;;;;;;5092904;28;20025;-76
2023/06/23 09:55:50;;;;;;;1.10;1.00;;;;;;;;;;5091387;28;20032;-77
2023/06/23 09:58:17;;;;;;;1.93;1.03;;;;;;;;;;5092668;28;20261;-76
2023/06/23 10:00:42;;;;;;;2.42;1.10;;;;;;;;;;5091544;28;20028;-76
2023/06/23 10:03:07;;;;;;;2.00;1.30;;;;;;;;;;5092679;28;20030;-76
2023/06/23 10:05:37;;;;;;;1.80;1.20;;;;;;;;;;5092818;28;20032;-76
2023/06/23 10:08:08;;;;;;;2.20;1.30;;;;;;;;;;5092416;28;20483;-76
2023/06/23 10:10:39;;;;;;;5.05;1.30;;;;;;;;;;5093231;28;20395;-76
2023/06/23 10:13:04;;;;;;;1.40;1.17;;;;;;;;;;5096682;28;20026;-75
2023/06/23 10:15:29;;;;;;;1.88;1.30;;;;;;;;;;5096464;28;20099;-76
2023/06/23 10:17:55;;;;;;;1.60;1.30;;;;;;;;;;5096223;28;20055;-76
2023/06/23 10:20:20;;;;;;;1.17;1.08;;;;;;;;;;5096693;28;20367;-77
2023/06/23 10:22:46;;;;;;;2.57;1.10;;;;;;;;;;5096133;28;20131;-76
2023/06/23 10:25:12;;;;;;;1.90;1.35;;;;;;;;;;5096083;28;20260;-76
2023/06/23 10:27:39;;;;;;;2.63;1.35;;;;;;;;;;5094612;28;20111;-77
2023/06/23 10:30:06;;;;;;;1.75;1.30;;;;;;;;;;5095627;28;20071;-76
2023/06/23 10:32:34;;;;;;;1.30;1.20;;;;;;;;;;5096324;28;20478;-77
2023/06/23 10:35:07;;;;;;;2.38;1.20;;;;;;;;;;5095934;28;20031;-76
2023/06/23 10:37:32;;;;;;;2.10;1.33;;;;;;;;;;5094636;28;20055;-77
2023/06/23 10:40:01;;;;;;;1.50;1.33;;;;;;;;;;5094657;28;20031;-77
2023/06/23 10:42:28;;;;;;;1.38;1.20;;;;;;;;;;5095709;28;20478;-77
2023/06/23 10:44:54;;;;;;;1.95;1.30;;;;;;;;;;5095724;28;20410;-77
2023/06/23 10:47:19;;;;;;;1.52;1.30;;;;;;;;;;5094770;28;20020;-77
2023/06/23 10:49:46;;;;;;;1.27;1.17;;;;;;;;;;5095921;28;20039;-76
2023/06/23 10:52:12;;;;;;;2.22;1.40;;;;;;;;;;5095589;28;20054;-77
2023/06/23 10:54:37;;;;;;;1.70;1.30;;;;;;;;;;5095486;28;20024;-77
2023/06/23 10:57:13;;;;;;;1.23;1.13;;;;;;;;;;5095395;28;20096;-76
2023/06/23 11:00:00;;;;;;;3.33;1.40;;;;;;;;;;5094150;28;20024;-76
2023/06/23 11:02:26;;;;;;;3.40;1.30;;;;;;;;;;5095348;28;20482;-77
2023/06/23 11:04:58;;;;;;;1.63;1.23;;;;;;;;;;5095295;28;20035;-77
2023/06/23 11:07:24;;;;;;;1.50;1.40;;;;;;;;;;5093717;28;20081;-77
2023/06/23 11:10:02;;;;;;;1.83;1.40;;;;;;;;;;5095484;28;20028;-75
2023/06/23 11:12:41;;;;;;;1.42;1.23;;;;;;;;;;5095526;28;20035;-76
2023/06/23 11:15:21;;;;;;;2.88;1.20;;;;;;;;;;5095484;28;20040;-76
2023/06/23 11:17:48;;;;;;;1.65;1.38;;;;;;;;;;5093916;28;20399;-77
2023/06/23 11:20:20;;;;;;;1.95;1.60;;;;;;;;;;5094993;28;20145;-77
2023/06/23 11:23:03;;;;;;;1.55;1.30;;;;;;;;;;5094669;28;20059;-77
2023/06/23 11:25:41;;;;;;;2.55;1.67;;;;;;;;;;5095288;28;20107;-77
2023/06/23 11:28:28;;;;;;;1.40;1.30;;;;;;;;;;5095502;28;20028;-77
2023/06/23 11:30:59;;;;;;;1.63;1.42;;;;;;;;;;5095212;28;20053;-76
2023/06/23 11:33:32;;;;;;;1.55;1.40;;;;;;;;;;5094705;28;20039;-76
2023/06/23 11:36:03;;;;;;;1.55;1.45;;;;;;;;;;5093975;28;20102;-75
2023/06/23 11:38:28;;;;;;;2.25;1.20;;;;;;;;;;5094595;28;20024;-77
2023/06/23 11:40:55;;;;;;;1.27;1.20;;;;;;;;;;5094606;28;20027;-76
2023/06/23 11:43:22;;;;;;;4.38;1.25;;;;;;;;;;5094687;28;20030;-76
2023/06/23 11:45:56;;;;;;;3.30;1.10;;;;;;;;;;5094711;28;20102;-76
2023/06/23 11:48:25;;;;;;;2.03;1.05;;;;;;;;;;5094598;28;20502;-76
2023/06/23 11:50:53;;;;;;;2.13;1.20;;;;;;;;;;5094883;28;20035;-76
2023/06/23 11:53:18;;;;;;;1.58;0.93;;;;;;;;;;5094726;28;20479;-76
2023/06/23 11:55:44;;;;;;;3.25;0.98;;;;;;;;;;5094670;28;20071;-75
2023/06/23 11:58:09;;;;;;;1.77;1.10;;;;;;;;;;5094662;28;20012;-76
2023/06/23 12:00:34;;;;;;;1.42;1.20;;;;;;;;;;5092937;28;20295;-76
2023/06/23 12:03:00;;;;;;;1.20;1.10;;;;;;;;;;5094686;28;20031;-75
2023/06/23 12:05:26;;;;;;;2.58;1.10;;;;;;;;;;5094678;28;20032;-76
2023/06/23 12:07:52;;;;;;;1.10;1.00;;;;;;;;;;5092741;28;20031;-76
2023/06/23 12:10:17;;;;;;;1.00;0.90;;;;;;;;;;5094105;28;20032;-76
2023/06/23 12:12:43;;;;;;;1.33;1.02;;;;;;;;;;5094119;28;20016;-76
2023/06/23 12:15:09;;;;;;;1.13;1.02;;;;;;;;;;5092783;28;20062;-76
2023/06/23 12:17:41;;;;;;;0.90;0.88;;;;;;;;;;5093931;28;20058;-76
2023/06/23 12:20:07;;;;;;;1.08;0.98;;;;;;;;;;5094086;28;20051;-76
2023/06/23 12:22:36;;;;;;;1.20;1.00;;;;;;;;;;5094145;28;20101;-76
2023/06/23 12:25:02;;;;;;;1.20;0.90;;;;;;;;;;5093962;28;20055;-75
2023/06/23 12:27:29;;;;;;;1.20;0.98;;;;;;;;;;5092522;28;20047;-76
2023/06/23 12:29:54;;;;;;;0.93;0.93;;;;;;;;;;5092445;28;20027;-76
2023/06/23 12:32:19;;;;;;;1.57;1.10;;;;;;;;;;5092424;28;20030;-76
2023/06/23 12:34:45;;;;;;;1.10;1.00;;;;;;;;;;5093499;28;20023;-77
2023/06/23 12:37:13;;;;;;;1.52;1.00;;;;;;;;;;5093698;28;20161;-76
2023/06/23 12:39:38;;;;;;;1.70;1.00;;;;;;;;;;5092317;28;20027;-76
2023/06/23 12:42:06;;;;;;;1.63;1.10;;;;;;;;;;5093887;28;20024;-76
2023/06/23 12:44:32;;;;;;;1.80;1.00;;;;;;;;;;5093582;28;20260;-76
2023/06/23 12:46:58;;;;;;;1.48;0.90;;;;;;;;;;5093372;28;20024;-75
2023/06/23 12:49:28;;;;;;;0.90;0.80;;;;;;;;;;5093729;28;20027;-76
2023/06/23 12:51:53;;;;;;;0.73;0.73;;;;;;;;;;5092432;28;20016;-76
2023/06/23 12:54:19;;;;;;;1.10;1.00;;;;;;;;;;5093502;28;20016;-77
2023/06/23 12:56:44;;;;;;;2.28;0.90;;;;;;;;;;5092089;28;20265;-76
2023/06/23 12:59:09;;;;;;;1.03;0.93;;;;;;;;;;5093324;28;20055;-76
2023/06/23 13:01:36;;;;;;;1.17;0.93;;;;;;;;;;5092032;28;20763;-77
2023/06/23 13:04:01;;;;;;;2.58;0.90;;;;;;;;;;5093268;28;20016;-76
2023/06/23 13:06:27;;;;;;;1.00;0.90;;;;;;;;;;5093371;28;20061;-76
2023/06/23 13:08:52;;;;;;;1.20;0.80;;;;;;;;;;5091714;28;20503;-77
2023/06/23 13:11:18;;;;;;;0.85;0.85;;;;;;;;;;5093289;28;20487;-76
2023/06/23 13:13:43;;;;;;;1.95;1.20;;;;;;;;;;5093381;28;20095;-76
2023/06/23 13:16:08;;;;;;;1.43;0.70;;;;;;;;;;5093088;28;20380;-76
2023/06/23 13:18:34;;;;;;;1.30;0.90;;;;;;;;;;5093232;28;20619;-77
2023/06/23 13:20:59;;;;;;;2.05;0.80;;;;;;;;;;5093304;28;20069;-76
2023/06/23 13:23:24;;;;;;;0.90;0.90;;;;;;;;;;5093351;28;20032;-76
2023/06/23 13:25:50;;;;;;;0.82;0.80;;;;;;;;;;5091715;28;20267;-76
2023/06/23 13:28:15;;;;;;;2.33;1.00;;;;;;;;;;5092718;28;20082;-76
2023/06/23 13:30:40;;;;;;;2.33;0.85;;;;;;;;;;5091852;28;20020;-76
2023/06/23 13:33:06;;;;;;;1.30;0.80;;;;;;;;;;5092820;28;20510;-76
2023/06/23 13:35:31;;;;;;;3.20;0.90;;;;;;;;;;5093127;28;20751;-76
2023/06/23 13:37:57;;;;;;;0.90;0.70;;;;;;;;;;5092917;28;20367;-77
2023/06/23 13:40:22;;;;;;;3.15;0.75;;;;;;;;;;5093517;28;20260;-77
2023/06/23 13:42:47;;;;;;;0.87;0.87;;;;;;;;;;5092836;28;20020;-76
2023/06/23 13:45:13;;;;;;;2.20;1.07;;;;;;;;;;5094768;28;20364;-76
2023/06/23 13:47:38;;;;;;;1.73;0.97;;;;;;;;;;5095377;28;20318;-76
2023/06/23 13:50:12;;;;;;;1.65;0.85;;;;;;;;;;5096692;28;20682;-76
2023/06/23 13:52:41;;;;;;;3.55;0.90;;;;;;;;;;5095389;28;20028;-76
2023/06/23 13:55:09;;;;;;;1.88;0.80;;;;;;;;;;5096838;28;20028;-76
2023/06/23 13:57:34;;;;;;;0.90;0.90;;;;;;;;;;5096505;28;20028;-75
2023/06/23 14:00:00;;;;;;;1.27;1.02;;;;;;;;;;5095217;28;20028;-76
2023/06/23 14:02:25;;;;;;;4.50;0.90;;;;;;;;;;5096651;28;20529;-76
2023/06/23 14:04:50;;;;;;;4.70;1.13;;;;;;;;;;5095468;28;20020;-76
2023/06/23 14:07:15;;;;;;;1.93;0.80;;;;;;;;;;5096202;28;20257;-76
2023/06/23 14:09:41;;;;;;;4.78;0.90;;;;;;;;;;5096586;28;20276;-77
2023/06/23 14:12:06;;;;;;;1.33;1.10;;;;;;;;;;5096435;28;20032;-77
2023/06/23 14:14:32;;;;;;;1.38;1.10;;;;;;;;;;5096517;28;20751;-76
2023/06/23 14:16:57;;;;;;;2.67;0.88;;;;;;;;;;5094895;28;20016;-76
2023/06/23 14:19:22;;;;;;;1.85;0.70;;;;;;;;;;5096314;28;20021;-76
2023/06/23 14:21:48;;;;;;;2.38;0.60;;;;;;;;;;5096569;28;20016;-76
2023/06/23 14:24:13;;;;;;;1.70;0.70;;;;;;;;;;5096199;28;20023;-76
2023/06/23 14:26:38;;;;;;;2.70;0.60;;;;;;;;;;5096357;28;20300;-77
2023/06/23 14:29:03;;;;;;;2.20;0.70;;;;;;;;;;5096554;28;20328;-76
2023/06/23 14:31:29;;;;;;;1.60;0.52;;;;;;;;;;5096085;28;20294;-76
2023/06/23 14:33:54;;;;;;;1.08;0.50;;;;;;;;;;5096447;28;20076;-76
2023/06/23 14:36:19;;;;;;;1.55;0.70;;;;;;;;;;5095878;28;20383;-75
2023/06/23 14:38:44;;;;;;;1.70;0.60;;;;;;;;;;5096211;28;20031;-76
2023/06/23 14:41:10;;;;;;;0.87;0.60;;;;;;;;;;5096353;28;20279;-76
2023/06/23 14:43:35;;;;;;;1.27;0.60;;;;;;;;;;5096258;28;20261;-76
2023/06/23 14:46:00;;;;;;;2.00;0.60;;;;;;;;;;5095937;28;20527;-75
2023/06/23 14:48:25;;;;;;;1.02;0.55;;;;;;;;;;5095658;28;20283;-76